Tasinge Maersk — OUSX2 — position and weather

sailwx.info

Track history (hours):
 
Tides and Currents Weather Stations Pressure Air Temp Water Temp Dewpoint Dewpoint Depression Visibility Wind Speed Wind Dir Waves Ship Positions

Tasinge Maersk

Last reported at 2016-Aug-20 18:04 UTC. Time now 2016-Aug-30 22:40 UTC.
Position N 08°19' W 014°55'.
Warning: this ship's position is 10 days out of date.

Length 191 m; draft 10.1 m.

Type: Cargo ship. MMSI: 220157000.

Date/timePositionNaut miles runAvg speedWind from/ knotsBaromVisibWave heightAir tempDewpointWater temp
2016-Aug-20 18:04N 08°19' W 014°55'  
2016-Aug-13 11:33N 19°49' W 017°32'3316.6
2016-Aug-13 09:33N 20°21' W 017°39'7217.3
2016-Aug-13 05:25N 21°33' W 017°40'33716.6
2016-Aug-12 09:06N 26°36' W 014°57'2815.8
2016-Aug-12 07:21N 26°57' W 014°38'5016.4
2016-Aug-12 04:19N 27°36' W 014°02'1316.9
2016-Aug-12 03:33N 27°46' W 013°53'6916.8
2016-Aug-11 23:28N 28°42' W 013°08'1916.9
2016-Aug-11 22:21N 28°58' W 012°56'10717.0
2016-Aug-11 16:04N 30°26' W 011°46'816.1
2016-Aug-11 15:34N 30°33' W 011°41'1915.9
2016-Aug-11 14:22N 30°49' W 011°29'3016.3
2016-Aug-11 12:33N 31°13' W 011°09'1616.5
2016-Aug-11 11:33N 31°27' W 010°59'1716.6
2016-Aug-11 10:30N 31°41' W 010°47'1616.6
2016-Aug-11 09:33N 31°54' W 010°37'1716.6
2016-Aug-11 08:31N 32°08' W 010°25'20916.1
2016-Aug-10 19:32N 34°39' W 007°32'1616.2
2016-Aug-10 18:34N 34°50' W 007°18'  
Track history (hours):
 
Tides and Currents Weather Stations Pressure Air Temp Water Temp Dewpoint Dewpoint Depression Visibility Wind Speed Wind Dir Waves Ship Positions

Tasinge Maersk

Last reported at 2016-Aug-20 18:04 UTC. Time now 2016-Aug-30 22:40 UTC.
Position N 08°19' W 014°55'.
Warning: this ship's position is 10 days out of date.

Length 191 m; draft 10.1 m.

Type: Cargo ship. MMSI: 220157000.

Date/timePositionNaut miles runAvg speedWind from/ knotsBaromVisibWave heightAir tempDewpointWater temp
2016-Aug-20 18:04N 08°19' W 014°55'  
2016-Aug-13 11:33N 19°49' W 017°32'3316.6
2016-Aug-13 09:33N 20°21' W 017°39'7217.3
2016-Aug-13 05:25N 21°33' W 017°40'33716.6
2016-Aug-12 09:06N 26°36' W 014°57'2815.8
2016-Aug-12 07:21N 26°57' W 014°38'5016.4
2016-Aug-12 04:19N 27°36' W 014°02'1316.9
2016-Aug-12 03:33N 27°46' W 013°53'6916.8
2016-Aug-11 23:28N 28°42' W 013°08'1916.9
2016-Aug-11 22:21N 28°58' W 012°56'10717.0
2016-Aug-11 16:04N 30°26' W 011°46'816.1
2016-Aug-11 15:34N 30°33' W 011°41'1915.9
2016-Aug-11 14:22N 30°49' W 011°29'3016.3
2016-Aug-11 12:33N 31°13' W 011°09'1616.5
2016-Aug-11 11:33N 31°27' W 010°59'1716.6
2016-Aug-11 10:30N 31°41' W 010°47'1616.6
2016-Aug-11 09:33N 31°54' W 010°37'1716.6
2016-Aug-11 08:31N 32°08' W 010°25'20916.1
2016-Aug-10 19:32N 34°39' W 007°32'1616.2
2016-Aug-10 18:34N 34°50' W 007°18'  

Dump ship's entire track history